Terminal Aerodrome Forecast
Issued by NWS

Home | Current Version | Previous Version | Text Only | Print | Product List | Glossary On
Versions: 1 2 3 4 5 6 7 8 9 10 11 12 13 14 15 16
000
FTUS41 KPHI 181000 AAA
TAFMIV
TAF AMD
KMIV 181018Z 1810/1906 00000KT P6SM SCT080
      TEMPO 1810/1814 BKN080
     FM181400 32005KT P6SM SCT050
     FM182300 VRB02KT P6SM FEW050
     FM190400 01002KT P6SM SKC=

USA.gov is the U.S. government's official web portal to all federal, state and local government web resources and services.